createdAt,value
2022-10-12T00:03:32.186Z,74.41
2022-10-12T00:08:37.352Z,74.66
2022-10-12T00:13:40.860Z,74.75
2022-10-12T00:18:44.579Z,74.76
2022-10-12T00:23:47.887Z,75.04
2022-10-12T00:28:57.445Z,74.86
2022-10-12T00:34:02.736Z,75.05
2022-10-12T00:39:09.175Z,75.54
2022-10-12T00:44:34.208Z,75.37
2022-10-12T00:49:37.723Z,75.58
2022-10-12T00:54:46.158Z,75.64
2022-10-12T01:00:27.043Z,75.67
2022-10-12T01:05:30.559Z,75.75
2022-10-12T01:10:33.874Z,76.03
2022-10-12T01:15:41.466Z,75.85
2022-10-12T01:21:09.369Z,76.05
2022-10-12T01:26:31.419Z,76.39
2022-10-12T01:31:47.324Z,76.18
2022-10-12T01:37:00.979Z,76.36
2022-10-12T01:42:09.922Z,76.33
2022-10-12T01:47:14.357Z,76.62
2022-10-12T01:52:45.320Z,76.58
2022-10-12T01:58:10.130Z,77.03
2022-10-12T02:03:29.417Z,76.73
2022-10-12T02:08:38.667Z,76.63
2022-10-12T02:14:14.336Z,76.85
2022-10-12T02:19:24.201Z,77.11
2022-10-12T02:24:30.787Z,77.47
2022-10-12T02:29:40.370Z,77.25
2022-10-12T02:34:49.496Z,77.33
2022-10-12T02:40:01.404Z,77.41
2022-10-12T02:45:10.947Z,77.59
2022-10-12T02:50:17.475Z,77.57
2022-10-12T02:55:20.822Z,77.55
2022-10-12T03:00:24.069Z,77.85
2022-10-12T03:05:27.278Z,78.01
2022-10-12T03:10:30.486Z,78.13
2022-10-12T03:15:33.898Z,78.21
2022-10-12T03:20:37.316Z,78.59
2022-10-12T03:25:41.944Z,78.47
2022-10-12T03:30:45.267Z,78.90
2022-10-12T03:35:48.472Z,78.67
2022-10-12T03:40:51.987Z,78.73
2022-10-12T03:45:55.097Z,79.15
2022-10-12T03:50:58.711Z,79.48
2022-10-12T03:56:02.026Z,79.40
2022-10-12T04:01:05.500Z,79.86
2022-10-12T04:06:09.056Z,79.95
2022-10-12T04:11:12.263Z,79.82
2022-10-12T04:16:15.574Z,80.05
2022-10-12T04:21:26.053Z,79.94
2022-10-12T04:26:29.362Z,80.19
2022-10-12T04:31:32.673Z,80.34
2022-10-12T04:36:35.880Z,80.48
2022-10-12T04:41:39.922Z,80.53
2022-10-12T04:46:43.117Z,80.82
2022-10-12T04:51:49.198Z,80.72
2022-10-12T04:56:52.515Z,80.77
2022-10-12T05:01:55.963Z,80.66
2022-10-12T05:06:59.230Z,80.81
2022-10-12T05:12:02.443Z,80.61
2022-10-12T05:17:05.647Z,80.85
2022-10-12T05:22:08.957Z,80.68
2022-10-12T05:27:12.367Z,80.55
2022-10-12T05:32:15.988Z,80.93
2022-10-12T05:37:19.197Z,80.77
2022-10-12T05:42:22.407Z,80.97
2022-10-12T05:47:26.124Z,80.88
2022-10-12T05:52:29.645Z,81.15
2022-10-12T05:57:32.846Z,80.93
2022-10-12T06:02:36.512Z,81.04
2022-10-12T06:07:39.879Z,81.14
2022-10-12T06:12:43.704Z,81.14
2022-10-12T06:17:47.011Z,81.28
2022-10-12T06:22:50.123Z,81.11
2022-10-12T06:27:53.444Z,81.13
2022-10-12T06:32:56.637Z,81.06
2022-10-12T06:37:59.846Z,80.88
2022-10-12T06:43:03.258Z,80.85
2022-10-12T06:48:06.469Z,80.48
2022-10-12T06:53:09.676Z,80.40
2022-10-12T06:58:13.192Z,80.50
2022-10-12T07:03:17.933Z,80.59
2022-10-12T07:08:21.246Z,80.60
2022-10-12T07:13:24.555Z,80.64
2022-10-12T07:18:28.172Z,80.55
2022-10-12T07:23:33.324Z,80.33
2022-10-12T07:28:37.818Z,80.49
2022-10-12T07:33:41.076Z,80.19
2022-10-12T07:38:45.572Z,80.06
2022-10-12T07:43:48.928Z,79.87
2022-10-12T07:48:52.340Z,79.96
2022-10-12T07:53:55.650Z,79.80
2022-10-12T07:58:59.473Z,79.73
2022-10-12T08:04:02.787Z,79.65
2022-10-12T08:09:06.506Z,79.58
2022-10-12T08:14:16.890Z,79.30
2022-10-12T08:19:20.293Z,79.15
2022-10-12T08:24:23.604Z,78.84
2022-10-12T08:29:27.016Z,78.49
2022-10-12T08:34:31.146Z,78.15
2022-10-12T08:39:34.251Z,77.70
2022-10-12T08:44:59.990Z,77.56
2022-10-12T08:50:07.380Z,77.56
2022-10-12T08:55:26.331Z,77.67
2022-10-12T09:05:55.932Z,77.50
2022-10-12T09:11:20.440Z,77.19
2022-10-12T09:16:26.210Z,77.01
2022-10-12T09:21:31.774Z,76.80
2022-10-12T09:26:37.694Z,76.72
2022-10-12T09:32:05.632Z,76.51
2022-10-12T09:37:17.032Z,76.50
2022-10-12T09:42:20.344Z,76.42
2022-10-12T09:47:31.962Z,76.20
2022-10-12T09:52:45.015Z,76.13
2022-10-12T09:57:59.766Z,75.85
2022-10-12T10:03:03.999Z,75.14
2022-10-12T10:08:21.145Z,74.75
2022-10-12T10:13:28.545Z,74.01
2022-10-12T10:18:39.121Z,72.68
2022-10-12T10:23:59.122Z,72.24
2022-10-12T10:29:24.253Z,70.76
2022-10-12T10:34:27.658Z,69.93
2022-10-12T10:40:00.469Z,69.02
2022-10-12T10:45:09.006Z,68.44
2022-10-12T10:50:32.683Z,68.38
2022-10-12T10:55:42.343Z,67.92
2022-10-12T11:00:48.944Z,67.77
2022-10-12T11:06:25.828Z,66.73
2022-10-12T11:11:32.621Z,65.59
2022-10-12T11:16:46.480Z,65.21
2022-10-12T11:22:03.820Z,64.79
2022-10-12T11:27:10.099Z,63.40
2022-10-12T11:32:22.653Z,63.81
2022-10-12T11:37:39.149Z,63.90
2022-10-12T11:42:43.756Z,63.86
2022-10-12T11:47:51.707Z,64.09
2022-10-12T11:52:57.475Z,64.22
2022-10-12T11:58:13.420Z,63.96
2022-10-12T12:03:30.957Z,63.26
2022-10-12T12:08:40.483Z,62.20
2022-10-12T12:13:43.693Z,61.70
2022-10-12T12:19:09.016Z,61.59
2022-10-12T12:24:17.670Z,61.10
2022-10-12T12:29:28.543Z,61.00
2022-10-12T12:34:31.854Z,60.53
2022-10-12T12:39:36.444Z,60.38
2022-10-12T12:44:44.720Z,60.05
2022-10-12T12:49:53.356Z,59.99
2022-10-12T12:55:21.446Z,59.83
2022-10-12T13:00:27.100Z,59.45
2022-10-12T13:06:08.315Z,59.12
2022-10-12T13:11:42.650Z,58.43
2022-10-12T13:22:35.421Z,58.70
2022-10-12T13:27:47.469Z,58.37
2022-10-12T13:32:58.049Z,58.14
2022-10-12T13:38:06.927Z,57.59
2022-10-12T13:43:28.736Z,58.14
2022-10-12T13:48:58.009Z,57.93
2022-10-12T13:53:56.152Z,58.64
2022-10-12T13:59:04.307Z,58.65
2022-10-12T14:04:11.675Z,59.15
2022-10-12T14:09:21.644Z,59.16
2022-10-12T14:14:32.228Z,59.43
2022-10-12T14:19:41.589Z,59.63
2022-10-12T14:24:45.840Z,59.68
2022-10-12T14:30:04.007Z,60.00
2022-10-12T14:35:21.215Z,60.36
2022-10-12T14:40:38.731Z,60.57
2022-10-12T14:45:41.843Z,60.71
2022-10-12T14:50:45.452Z,60.76
2022-10-12T14:55:50.903Z,60.73
2022-10-12T15:00:57.318Z,61.20
2022-10-12T15:06:00.517Z,61.21
2022-10-12T15:11:03.659Z,61.52
2022-10-12T15:16:18.769Z,61.67
2022-10-12T15:21:22.042Z,61.94
2022-10-12T15:26:25.133Z,62.15
2022-10-12T15:31:28.247Z,62.38
2022-10-12T15:36:31.363Z,62.40
2022-10-12T15:41:34.524Z,62.70
2022-10-12T15:46:37.621Z,62.81
2022-10-12T15:52:01.983Z,62.95
2022-10-12T15:57:06.712Z,63.29
2022-10-12T16:02:12.551Z,63.39
2022-10-12T16:07:16.053Z,63.57
2022-10-12T16:12:19.681Z,63.61
2022-10-12T16:17:22.749Z,63.90
2022-10-12T16:22:25.778Z,64.04
2022-10-12T16:27:29.762Z,64.22
2022-10-12T16:32:33.093Z,64.28
2022-10-12T16:37:36.536Z,64.52
2022-10-12T16:42:39.939Z,64.71
2022-10-12T16:47:43.190Z,64.94
2022-10-12T16:52:46.631Z,65.09
2022-10-12T16:57:49.896Z,65.04
2022-10-12T17:02:57.308Z,65.26
2022-10-12T17:08:00.908Z,65.50
2022-10-12T17:20:27.838Z,65.77
2022-10-12T17:25:31.002Z,65.98
2022-10-12T17:30:38.454Z,66.03
2022-10-12T17:35:42.262Z,66.28
2022-10-12T17:40:45.402Z,66.45
2022-10-12T17:45:48.477Z,66.17
2022-10-12T17:50:51.818Z,66.65
2022-10-12T17:55:58.938Z,66.80
2022-10-12T18:01:11.223Z,67.03
2022-10-12T18:06:17.701Z,67.36
2022-10-12T18:11:21.420Z,67.27
2022-10-12T18:16:30.606Z,67.43
2022-10-12T18:21:34.205Z,67.76
2022-10-12T18:26:37.580Z,67.93
2022-10-12T18:31:40.937Z,67.91
2022-10-12T18:36:43.996Z,68.09
2022-10-12T18:41:51.748Z,68.39
2022-10-12T18:46:54.938Z,68.51
2022-10-12T18:51:58.152Z,68.50
2022-10-12T18:57:01.573Z,68.69
2022-10-12T19:02:05.096Z,68.68
2022-10-12T19:07:08.513Z,68.63
2022-10-12T19:12:13.020Z,68.90
2022-10-12T19:17:16.672Z,68.93
2022-10-12T19:22:20.043Z,68.95
2022-10-12T19:27:23.496Z,68.95
2022-10-12T19:32:26.663Z,69.17
2022-10-12T19:37:29.849Z,69.44
2022-10-12T19:42:33.075Z,69.46
2022-10-12T19:47:37.560Z,69.59
2022-10-12T19:52:40.983Z,69.60
2022-10-12T19:57:45.557Z,69.93
2022-10-12T20:02:49.739Z,70.07
2022-10-12T20:07:53.003Z,70.44
2022-10-12T20:12:56.249Z,70.26
2022-10-12T20:18:00.535Z,70.24
2022-10-12T20:23:03.573Z,70.42
2022-10-12T20:28:07.537Z,70.43
2022-10-12T20:33:11.127Z,70.57
2022-10-12T20:38:14.552Z,70.57
2022-10-12T20:43:19.542Z,70.69
2022-10-12T20:48:25.555Z,70.46
2022-10-12T20:53:31.578Z,70.51
2022-10-12T20:58:37.557Z,70.55
2022-10-12T21:03:44.344Z,70.62
2022-10-12T21:08:55.557Z,70.82
2022-10-12T21:14:03.502Z,70.75
2022-10-12T21:19:08.509Z,70.85
2022-10-12T21:24:14.511Z,71.18
2022-10-12T21:29:20.482Z,71.22
2022-10-12T21:34:24.828Z,71.29
2022-10-12T21:39:29.296Z,71.49
2022-10-12T21:53:00.183Z,71.75
2022-10-12T21:58:03.836Z,71.88
2022-10-12T22:03:07.039Z,71.95
2022-10-12T22:08:11.170Z,72.05
2022-10-12T22:13:14.482Z,72.23
2022-10-12T22:18:17.588Z,72.35
2022-10-12T22:23:21.205Z,72.34
2022-10-12T22:28:24.472Z,72.34
2022-10-12T22:33:27.728Z,72.72
2022-10-12T22:38:31.957Z,72.45
2022-10-12T22:43:35.575Z,72.98
2022-10-12T22:48:39.097Z,72.95
2022-10-12T22:53:43.735Z,73.03
2022-10-12T22:58:49.091Z,72.88
2022-10-12T23:03:53.669Z,72.86
2022-10-12T23:08:57.157Z,72.98
2022-10-12T23:14:00.354Z,73.14
2022-10-12T23:19:05.934Z,73.18
2022-10-12T23:24:10.175Z,73.25
2022-10-12T23:29:13.368Z,73.22
2022-10-12T23:34:16.568Z,73.44
2022-10-12T23:39:19.777Z,73.47
2022-10-12T23:44:23.189Z,73.38
2022-10-12T23:49:26.298Z,73.46
2022-10-12T23:54:29.812Z,73.56
2022-10-12T23:59:33.019Z,73.78
